Terminal Aerodrome Forecast
Issued by NWS Hastings, NE

Home | Current Version | Previous Version | Text Only | Print | Product List | Glossary On
Versions: 1 2 3 4 5 6 7 8 9 10 11 12 13 14 15 16 17 18 19 20 21 22 23 24
891
FTUS43 KGID 061720
TAFGRI
TAF
KGRI 061720Z 0618/0718 19016KT P6SM SKC
     FM070100 17009KT P6SM FEW250
     FM070500 18008KT P6SM SCT250 WS020/21040KT
     FM071000 24006KT P6SM SCT250
     FM071600 05010KT P6SM SCT250=

USA.gov is the U.S. government's official web portal to all federal, state and local government web resources and services.